sensor_id;sensor_type;location;lat;lon;timestamp;temperature;humidity
69006;SHT31;56061;51.748;19.620;2023-11-21T09:30:15;2.11;88.53
69006;SHT31;56061;51.748;19.620;2023-11-21T09:32:42;2.04;88.55
69006;SHT31;56061;51.748;19.620;2023-11-21T09:35:12;1.97;88.65
69006;SHT31;56061;51.748;19.620;2023-11-21T09:37:41;1.91;88.76
69006;SHT31;56061;51.748;19.620;2023-11-21T09:40:09;1.83;88.79
69006;SHT31;56061;51.748;19.620;2023-11-21T09:42:40;1.78;88.89
69006;SHT31;56061;51.748;19.620;2023-11-21T09:47:44;1.70;88.93
69006;SHT31;56061;51.748;19.620;2023-11-21T09:50:14;1.67;88.99
69006;SHT31;56061;51.748;19.620;2023-11-21T09:52:48;1.68;89.16
69006;SHT31;56061;51.748;19.620;2023-11-21T09:55:21;1.70;89.27
69006;SHT31;56061;51.748;19.620;2023-11-21T09:57:50;1.71;89.24
69006;SHT31;56061;51.748;19.620;2023-11-21T10:00:16;1.71;89.12
69006;SHT31;56061;51.748;19.620;2023-11-21T10:02:44;1.68;89.07
69006;SHT31;56061;51.748;19.620;2023-11-21T10:05:11;1.66;89.02
69006;SHT31;56061;51.748;19.620;2023-11-21T10:07:39;1.64;89.07
69006;SHT31;56061;51.748;19.620;2023-11-21T10:10:09;1.62;89.00
69006;SHT31;56061;51.748;19.620;2023-11-21T10:12:36;1.61;89.08
69006;SHT31;56061;51.748;19.620;2023-11-21T10:15:07;1.62;89.13
69006;SHT31;56061;51.748;19.620;2023-11-21T10:17:38;1.63;89.09
69006;SHT31;56061;51.748;19.620;2023-11-21T10:20:13;1.62;89.03
69006;SHT31;56061;51.748;19.620;2023-11-21T10:22:41;1.60;88.88
69006;SHT31;56061;51.748;19.620;2023-11-21T10:25:09;1.56;88.74
69006;SHT31;56061;51.748;19.620;2023-11-21T10:27:37;1.52;88.76
69006;SHT31;56061;51.748;19.620;2023-11-21T10:30:07;1.51;88.87
69006;SHT31;56061;51.748;19.620;2023-11-21T10:32:39;1.49;88.91
69006;SHT31;56061;51.748;19.620;2023-11-21T10:35:07;1.48;88.90
69006;SHT31;56061;51.748;19.620;2023-11-21T10:37:41;1.47;88.96
69006;SHT31;56061;51.748;19.620;2023-11-21T10:40:10;1.47;88.95
69006;SHT31;56061;51.748;19.620;2023-11-21T10:42:39;1.47;88.86
69006;SHT31;56061;51.748;19.620;2023-11-21T10:45:07;1.48;88.96
69006;SHT31;56061;51.748;19.620;2023-11-21T10:47:39;1.51;88.89
69006;SHT31;56061;51.748;19.620;2023-11-21T10:50:08;1.51;88.83
69006;SHT31;56061;51.748;19.620;2023-11-21T10:52:39;1.51;88.85
69006;SHT31;56061;51.748;19.620;2023-11-21T10:55:16;1.50;88.64
69006;SHT31;56061;51.748;19.620;2023-11-21T10:57:46;1.45;88.56
69006;SHT31;56061;51.748;19.620;2023-11-21T11:00:17;1.41;88.59
69006;SHT31;56061;51.748;19.620;2023-11-21T11:02:53;1.37;88.56
69006;SHT31;56061;51.748;19.620;2023-11-21T11:05:29;1.34;88.61
69006;SHT31;56061;51.748;19.620;2023-11-21T11:10:37;1.24;88.66
69006;SHT31;56061;51.748;19.620;2023-11-21T11:13:06;1.19;88.65
69006;SHT31;56061;51.748;19.620;2023-11-21T11:15:33;1.14;88.62
69006;SHT31;56061;51.748;19.620;2023-11-21T11:18:00;1.09;88.67
69006;SHT31;56061;51.748;19.620;2023-11-21T11:20:33;1.03;88.60
69006;SHT31;56061;51.748;19.620;2023-11-21T11:23:09;0.96;88.68
69006;SHT31;56061;51.748;19.620;2023-11-21T11:28:47;0.83;88.92
69006;SHT31;56061;51.748;19.620;2023-11-21T11:34:24;0.71;89.03
69006;SHT31;56061;51.748;19.620;2023-11-21T11:37:00;0.70;89.15
69006;SHT31;56061;51.748;19.620;2023-11-21T11:39:30;0.70;89.23
69006;SHT31;56061;51.748;19.620;2023-11-21T11:41:58;0.69;89.24
69006;SHT31;56061;51.748;19.620;2023-11-21T11:44:49;0.66;89.20
69006;SHT31;56061;51.748;19.620;2023-11-21T11:47:23;0.62;89.14
69006;SHT31;56061;51.748;19.620;2023-11-21T11:52:38;0.56;89.20
69006;SHT31;56061;51.748;19.620;2023-11-21T11:55:17;0.55;89.23
69006;SHT31;56061;51.748;19.620;2023-11-21T11:57:53;0.53;89.26
69006;SHT31;56061;51.748;19.620;2023-11-21T12:02:58;0.52;89.34
69006;SHT31;56061;51.748;19.620;2023-11-21T12:05:32;0.54;89.39
69006;SHT31;56061;51.748;19.620;2023-11-21T12:08:06;0.56;89.35
69006;SHT31;56061;51.748;19.620;2023-11-21T12:10:34;0.56;89.28
69006;SHT31;56061;51.748;19.620;2023-11-21T12:13:06;0.58;89.30
69006;SHT31;56061;51.748;19.620;2023-11-21T12:15:37;0.61;89.30
69006;SHT31;56061;51.748;19.620;2023-11-21T12:18:06;0.62;89.30
69006;SHT31;56061;51.748;19.620;2023-11-21T12:20:33;0.64;89.29
69006;SHT31;56061;51.748;19.620;2023-11-21T12:23:06;0.63;89.23
69006;SHT31;56061;51.748;19.620;2023-11-21T12:25:35;0.63;89.24
69006;SHT31;56061;51.748;19.620;2023-11-21T12:28:03;0.61;89.17
69006;SHT31;56061;51.748;19.620;2023-11-21T12:30:30;0.58;89.10
69006;SHT31;56061;51.748;19.620;2023-11-21T12:33:02;0.57;89.20
69006;SHT31;56061;51.748;19.620;2023-11-21T12:35:31;0.55;89.17
69006;SHT31;56061;51.748;19.620;2023-11-21T12:38:02;0.53;89.10
69006;SHT31;56061;51.748;19.620;2023-11-21T12:40:31;0.51;89.12
69006;SHT31;56061;51.748;19.620;2023-11-21T12:42:59;0.49;89.08
69006;SHT31;56061;51.748;19.620;2023-11-21T12:45:30;0.48;89.01
69006;SHT31;56061;51.748;19.620;2023-11-21T12:48:01;0.47;88.86
69006;SHT31;56061;51.748;19.620;2023-11-21T12:50:35;0.46;88.83
69006;SHT31;56061;51.748;19.620;2023-11-21T12:53:05;0.47;88.90
69006;SHT31;56061;51.748;19.620;2023-11-21T12:55:38;0.50;88.80
69006;SHT31;56061;51.748;19.620;2023-11-21T12:58:07;0.56;88.85
69006;SHT31;56061;51.748;19.620;2023-11-21T13:00:39;0.60;88.77
69006;SHT31;56061;51.748;19.620;2023-11-21T13:03:10;0.63;88.65
69006;SHT31;56061;51.748;19.620;2023-11-21T13:05:43;0.66;88.66
69006;SHT31;56061;51.748;19.620;2023-11-21T13:08:14;0.67;88.65
69006;SHT31;56061;51.748;19.620;2023-11-21T13:10:45;0.66;88.60
69006;SHT31;56061;51.748;19.620;2023-11-21T13:13:16;0.63;88.58
69006;SHT31;56061;51.748;19.620;2023-11-21T13:15:53;0.61;88.58
69006;SHT31;56061;51.748;19.620;2023-11-21T13:18:34;0.57;88.50
69006;SHT31;56061;51.748;19.620;2023-11-21T13:21:03;0.55;88.51
69006;SHT31;56061;51.748;19.620;2023-11-21T13:23:39;0.52;88.48
69006;SHT31;56061;51.748;19.620;2023-11-21T13:26:08;0.48;88.46
69006;SHT31;56061;51.748;19.620;2023-11-21T13:28:37;0.48;88.50
69006;SHT31;56061;51.748;19.620;2023-11-21T13:31:06;0.47;88.50
69006;SHT31;56061;51.748;19.620;2023-11-21T13:33:43;0.47;88.52
69006;SHT31;56061;51.748;19.620;2023-11-21T13:36:16;0.46;88.49
69006;SHT31;56061;51.748;19.620;2023-11-21T13:38:43;0.40;88.34
69006;SHT31;56061;51.748;19.620;2023-11-21T13:41:12;0.34;88.35
69006;SHT31;56061;51.748;19.620;2023-11-21T13:43:40;0.30;88.37
69006;SHT31;56061;51.748;19.620;2023-11-21T13:46:10;0.27;88.44
69006;SHT31;56061;51.748;19.620;2023-11-21T13:48:43;0.25;88.50
69006;SHT31;56061;51.748;19.620;2023-11-21T13:51:17;0.26;88.50
69006;SHT31;56061;51.748;19.620;2023-11-21T13:53:44;0.26;88.54
69006;SHT31;56061;51.748;19.620;2023-11-21T13:56:17;0.28;88.61
69006;SHT31;56061;51.748;19.620;2023-11-21T13:58:45;0.28;88.54
69006;SHT31;56061;51.748;19.620;2023-11-21T14:01:19;0.23;88.56
69006;SHT31;56061;51.748;19.620;2023-11-21T14:03:57;0.20;88.60
69006;SHT31;56061;51.748;19.620;2023-11-21T14:06:34;0.16;88.60
69006;SHT31;56061;51.748;19.620;2023-11-21T14:09:14;0.12;88.61
69006;SHT31;56061;51.748;19.620;2023-11-21T14:11:53;0.07;88.62
69006;SHT31;56061;51.748;19.620;2023-11-21T14:14:24;0.06;88.72
69006;SHT31;56061;51.748;19.620;2023-11-21T14:16:56;0.05;88.84
69006;SHT31;56061;51.748;19.620;2023-11-21T14:19:25;0.03;88.85
69006;SHT31;56061;51.748;19.620;2023-11-21T14:21:58;0.01;88.94
69006;SHT31;56061;51.748;19.620;2023-11-21T14:24:24;0.00;88.91
69006;SHT31;56061;51.748;19.620;2023-11-21T14:26:52;-0.01;88.96
69006;SHT31;56061;51.748;19.620;2023-11-21T14:29:19;-0.00;88.94
69006;SHT31;56061;51.748;19.620;2023-11-21T14:31:47;0.01;89.04
69006;SHT31;56061;51.748;19.620;2023-11-21T14:34:15;0.00;89.03
69006;SHT31;56061;51.748;19.620;2023-11-21T14:36:43;-0.01;89.00
69006;SHT31;56061;51.748;19.620;2023-11-21T14:39:11;-0.04;88.96
69006;SHT31;56061;51.748;19.620;2023-11-21T14:41:45;-0.06;88.95
69006;SHT31;56061;51.748;19.620;2023-11-21T14:44:12;-0.09;88.95
69006;SHT31;56061;51.748;19.620;2023-11-21T14:46:40;-0.09;89.04
69006;SHT31;56061;51.748;19.620;2023-11-21T14:49:10;-0.09;89.02
69006;SHT31;56061;51.748;19.620;2023-11-21T14:51:48;-0.11;88.91
69006;SHT31;56061;51.748;19.620;2023-11-21T14:54:34;-0.15;89.00
69006;SHT31;56061;51.748;19.620;2023-11-21T14:57:11;-0.18;89.02
69006;SHT31;56061;51.748;19.620;2023-11-21T15:02:11;-0.23;89.18
69006;SHT31;56061;51.748;19.620;2023-11-21T15:04:42;-0.25;89.19
69006;SHT31;56061;51.748;19.620;2023-11-21T15:07:10;-0.27;89.10
69006;SHT31;56061;51.748;19.620;2023-11-21T15:09:38;-0.30;89.09
69006;SHT31;56061;51.748;19.620;2023-11-21T15:12:08;-0.32;89.09
69006;SHT31;56061;51.748;19.620;2023-11-21T15:14:41;-0.33;89.11
69006;SHT31;56061;51.748;19.620;2023-11-21T15:17:12;-0.34;89.10
69006;SHT31;56061;51.748;19.620;2023-11-21T15:19:47;-0.37;89.11
69006;SHT31;56061;51.748;19.620;2023-11-21T15:22:14;-0.38;89.15
69006;SHT31;56061;51.748;19.620;2023-11-21T15:24:44;-0.40;89.15
69006;SHT31;56061;51.748;19.620;2023-11-21T15:27:14;-0.39;89.11
69006;SHT31;56061;51.748;19.620;2023-11-21T15:29:42;-0.40;89.05
69006;SHT31;56061;51.748;19.620;2023-11-21T15:32:10;-0.42;89.00
69006;SHT31;56061;51.748;19.620;2023-11-21T15:34:38;-0.44;89.00
69006;SHT31;56061;51.748;19.620;2023-11-21T15:37:06;-0.48;88.98
69006;SHT31;56061;51.748;19.620;2023-11-21T15:39:40;-0.50;88.90
69006;SHT31;56061;51.748;19.620;2023-11-21T15:42:08;-0.52;88.85
69006;SHT31;56061;51.748;19.620;2023-11-21T15:44:36;-0.51;88.87
69006;SHT31;56061;51.748;19.620;2023-11-21T15:47:04;-0.52;88.80
69006;SHT31;56061;51.748;19.620;2023-11-21T15:49:32;-0.54;88.82
69006;SHT31;56061;51.748;19.620;2023-11-21T15:52:04;-0.54;88.91
69006;SHT31;56061;51.748;19.620;2023-11-21T15:54:33;-0.55;88.96
69006;SHT31;56061;51.748;19.620;2023-11-21T15:57:03;-0.54;89.01
69006;SHT31;56061;51.748;19.620;2023-11-21T15:59:31;-0.53;88.99
69006;SHT31;56061;51.748;19.620;2023-11-21T16:02:00;-0.52;88.93
69006;SHT31;56061;51.748;19.620;2023-11-21T16:04:32;-0.50;88.99
69006;SHT31;56061;51.748;19.620;2023-11-21T16:06:58;-0.49;88.90
69006;SHT31;56061;51.748;19.620;2023-11-21T16:09:26;-0.50;88.81
69006;SHT31;56061;51.748;19.620;2023-11-21T16:11:54;-0.52;88.79
69006;SHT31;56061;51.748;19.620;2023-11-21T16:14:27;-0.53;88.71
69006;SHT31;56061;51.748;19.620;2023-11-21T16:17:01;-0.56;88.69
69006;SHT31;56061;51.748;19.620;2023-11-21T16:19:29;-0.56;88.77
69006;SHT31;56061;51.748;19.620;2023-11-21T16:22:12;-0.55;88.81
69006;SHT31;56061;51.748;19.620;2023-11-21T16:24:39;-0.55;88.78
69006;SHT31;56061;51.748;19.620;2023-11-21T16:27:05;-0.56;88.70
69006;SHT31;56061;51.748;19.620;2023-11-21T16:29:37;-0.57;88.61
69006;SHT31;56061;51.748;19.620;2023-11-21T16:32:05;-0.60;88.45
69006;SHT31;56061;51.748;19.620;2023-11-21T16:34:35;-0.59;88.42
69006;SHT31;56061;51.748;19.620;2023-11-21T16:37:02;-0.57;88.38
69006;SHT31;56061;51.748;19.620;2023-11-21T16:39:30;-0.54;88.40
69006;SHT31;56061;51.748;19.620;2023-11-21T16:41:56;-0.51;88.40
69006;SHT31;56061;51.748;19.620;2023-11-21T16:44:23;-0.48;88.42
69006;SHT31;56061;51.748;19.620;2023-11-21T16:46:51;-0.48;88.34
69006;SHT31;56061;51.748;19.620;2023-11-21T16:49:23;-0.47;88.32
69006;SHT31;56061;51.748;19.620;2023-11-21T16:51:51;-0.45;88.30
69006;SHT31;56061;51.748;19.620;2023-11-21T16:54:19;-0.45;88.30
69006;SHT31;56061;51.748;19.620;2023-11-21T16:56:45;-0.43;88.30
69006;SHT31;56061;51.748;19.620;2023-11-21T16:59:13;-0.42;88.25
69006;SHT31;56061;51.748;19.620;2023-11-21T17:01:41;-0.41;88.33
69006;SHT31;56061;51.748;19.620;2023-11-21T17:04:11;-0.42;88.30
69006;SHT31;56061;51.748;19.620;2023-11-21T17:06:42;-0.43;88.32
69006;SHT31;56061;51.748;19.620;2023-11-21T17:09:10;-0.43;88.39
69006;SHT31;56061;51.748;19.620;2023-11-21T17:11:47;-0.42;88.37
69006;SHT31;56061;51.748;19.620;2023-11-21T17:14:15;-0.42;88.31
69006;SHT31;56061;51.748;19.620;2023-11-21T17:16:42;-0.44;88.34
69006;SHT31;56061;51.748;19.620;2023-11-21T17:19:10;-0.41;88.42
69006;SHT31;56061;51.748;19.620;2023-11-21T17:21:37;-0.38;88.46
69006;SHT31;56061;51.748;19.620;2023-11-21T17:24:04;-0.36;88.50
69006;SHT31;56061;51.748;19.620;2023-11-21T17:26:31;-0.37;88.38
69006;SHT31;56061;51.748;19.620;2023-11-21T17:28:57;-0.40;88.38
69006;SHT31;56061;51.748;19.620;2023-11-21T17:31:25;-0.41;88.40
69006;SHT31;56061;51.748;19.620;2023-11-21T17:33:52;-0.45;88.21
69006;SHT31;56061;51.748;19.620;2023-11-21T17:36:20;-0.48;88.20
69006;SHT31;56061;51.748;19.620;2023-11-21T17:38:48;-0.50;88.20
69006;SHT31;56061;51.748;19.620;2023-11-21T17:41:19;-0.50;88.20
69006;SHT31;56061;51.748;19.620;2023-11-21T17:43:48;-0.49;88.20
69006;SHT31;56061;51.748;19.620;2023-11-21T17:46:21;-0.49;88.13
69006;SHT31;56061;51.748;19.620;2023-11-21T17:48:49;-0.52;88.10
69006;SHT31;56061;51.748;19.620;2023-11-21T17:51:20;-0.56;88.09
69006;SHT31;56061;51.748;19.620;2023-11-21T17:53:47;-0.58;88.04
69006;SHT31;56061;51.748;19.620;2023-11-21T17:56:15;-0.60;88.06
69006;SHT31;56061;51.748;19.620;2023-11-21T17:58:44;-0.60;88.10
69006;SHT31;56061;51.748;19.620;2023-11-21T18:01:12;-0.60;88.10
69006;SHT31;56061;51.748;19.620;2023-11-21T18:03:39;-0.59;88.17
69006;SHT31;56061;51.748;19.620;2023-11-21T18:06:06;-0.57;88.27
69006;SHT31;56061;51.748;19.620;2023-11-21T18:08:32;-0.53;88.35
69006;SHT31;56061;51.748;19.620;2023-11-21T18:11:00;-0.50;88.38
69006;SHT31;56061;51.748;19.620;2023-11-21T18:13:31;-0.49;88.36
69006;SHT31;56061;51.748;19.620;2023-11-21T18:15:58;-0.50;88.28
69006;SHT31;56061;51.748;19.620;2023-11-21T18:18:25;-0.52;88.20
69006;SHT31;56061;51.748;19.620;2023-11-21T18:20:52;-0.53;88.18
69006;SHT31;56061;51.748;19.620;2023-11-21T18:23:19;-0.57;88.10
69006;SHT31;56061;51.748;19.620;2023-11-21T18:25:45;-0.59;88.06
69006;SHT31;56061;51.748;19.620;2023-11-21T18:28:12;-0.60;88.07
69006;SHT31;56061;51.748;19.620;2023-11-21T18:30:40;-0.60;88.07
69006;SHT31;56061;51.748;19.620;2023-11-21T18:33:08;-0.58;88.11
69006;SHT31;56061;51.748;19.620;2023-11-21T18:35:36;-0.57;87.96
69006;SHT31;56061;51.748;19.620;2023-11-21T18:38:03;-0.60;87.84
69006;SHT31;56061;51.748;19.620;2023-11-21T18:40:30;-0.61;87.90
69006;SHT31;56061;51.748;19.620;2023-11-21T18:42:57;-0.62;87.89
69006;SHT31;56061;51.748;19.620;2023-11-21T18:45:24;-0.65;87.90
69006;SHT31;56061;51.748;19.620;2023-11-21T18:47:51;-0.65;87.90
69006;SHT31;56061;51.748;19.620;2023-11-21T18:50:18;-0.68;87.90
69006;SHT31;56061;51.748;19.620;2023-11-21T18:52:47;-0.68;87.99
69006;SHT31;56061;51.748;19.620;2023-11-21T18:55:16;-0.67;88.00
69006;SHT31;56061;51.748;19.620;2023-11-21T18:57:42;-0.66;88.00
69006;SHT31;56061;51.748;19.620;2023-11-21T19:00:09;-0.65;88.01
69006;SHT31;56061;51.748;19.620;2023-11-21T19:02:38;-0.63;88.00
69006;SHT31;56061;51.748;19.620;2023-11-21T19:05:06;-0.61;87.99
69006;SHT31;56061;51.748;19.620;2023-11-21T19:07:34;-0.62;87.89
69006;SHT31;56061;51.748;19.620;2023-11-21T19:10:05;-0.64;87.77
69006;SHT31;56061;51.748;19.620;2023-11-21T19:12:36;-0.68;87.62
69006;SHT31;56061;51.748;19.620;2023-11-21T19:15:05;-0.71;87.60
69006;SHT31;56061;51.748;19.620;2023-11-21T19:17:39;-0.74;87.50
69006;SHT31;56061;51.748;19.620;2023-11-21T19:20:07;-0.78;87.34
69006;SHT31;56061;51.748;19.620;2023-11-21T19:22:35;-0.81;87.37
69006;SHT31;56061;51.748;19.620;2023-11-21T19:25:03;-0.80;87.46
69006;SHT31;56061;51.748;19.620;2023-11-21T19:27:31;-0.82;87.36
69006;SHT31;56061;51.748;19.620;2023-11-21T19:30:01;-0.84;87.30
69006;SHT31;56061;51.748;19.620;2023-11-21T19:32:28;-0.84;87.33
69006;SHT31;56061;51.748;19.620;2023-11-21T19:34:56;-0.85;87.43
69006;SHT31;56061;51.748;19.620;2023-11-21T19:37:23;-0.82;87.50
69006;SHT31;56061;51.748;19.620;2023-11-21T19:39:49;-0.81;87.55
69006;SHT31;56061;51.748;19.620;2023-11-21T19:42:17;-0.79;87.56
69006;SHT31;56061;51.748;19.620;2023-11-21T19:44:43;-0.77;87.60
69006;SHT31;56061;51.748;19.620;2023-11-21T19:47:10;-0.77;87.54
69006;SHT31;56061;51.748;19.620;2023-11-21T19:49:37;-0.77;87.44
69006;SHT31;56061;51.748;19.620;2023-11-21T19:52:04;-0.80;87.33
69006;SHT31;56061;51.748;19.620;2023-11-21T19:54:33;-0.82;87.32
69006;SHT31;56061;51.748;19.620;2023-11-21T19:57:00;-0.86;87.34
69006;SHT31;56061;51.748;19.620;2023-11-21T19:59:30;-0.90;87.34
69006;SHT31;56061;51.748;19.620;2023-11-21T20:01:59;-0.93;87.33
69006;SHT31;56061;51.748;19.620;2023-11-21T20:04:26;-0.94;87.41
69006;SHT31;56061;51.748;19.620;2023-11-21T20:06:53;-0.94;87.44
69006;SHT31;56061;51.748;19.620;2023-11-21T20:09:23;-0.92;87.49
69006;SHT31;56061;51.748;19.620;2023-11-21T20:11:50;-0.93;87.42
69006;SHT31;56061;51.748;19.620;2023-11-21T20:14:18;-0.93;87.43
69006;SHT31;56061;51.748;19.620;2023-11-21T20:16:45;-0.91;87.50
69006;SHT31;56061;51.748;19.620;2023-11-21T20:19:14;-0.90;87.51
69006;SHT31;56061;51.748;19.620;2023-11-21T20:21:41;-0.90;87.42
69006;SHT31;56061;51.748;19.620;2023-11-21T20:24:09;-0.90;87.41
69006;SHT31;56061;51.748;19.620;2023-11-21T20:26:38;-0.91;87.40
69006;SHT31;56061;51.748;19.620;2023-11-21T20:29:08;-0.92;87.50
69006;SHT31;56061;51.748;19.620;2023-11-21T20:31:36;-0.93;87.50
69006;SHT31;56061;51.748;19.620;2023-11-21T20:34:03;-0.94;87.50
69006;SHT31;56061;51.748;19.620;2023-11-21T20:36:31;-0.92;87.56
69006;SHT31;56061;51.748;19.620;2023-11-21T20:38:58;-0.90;87.61
69006;SHT31;56061;51.748;19.620;2023-11-21T20:41:25;-0.88;87.61
69006;SHT31;56061;51.748;19.620;2023-11-21T20:43:54;-0.87;87.43
69006;SHT31;56061;51.748;19.620;2023-11-21T20:46:22;-0.89;87.30
69006;SHT31;56061;51.748;19.620;2023-11-21T20:48:49;-0.86;87.32
69006;SHT31;56061;51.748;19.620;2023-11-21T20:51:20;-0.87;87.23
69006;SHT31;56061;51.748;19.620;2023-11-21T20:53:47;-0.88;87.10
69006;SHT31;56061;51.748;19.620;2023-11-21T20:56:14;-0.89;87.03
69006;SHT31;56061;51.748;19.620;2023-11-21T20:58:41;-0.90;87.08
69006;SHT31;56061;51.748;19.620;2023-11-21T21:01:08;-0.90;87.10
69006;SHT31;56061;51.748;19.620;2023-11-21T21:03:36;-0.91;87.06
69006;SHT31;56061;51.748;19.620;2023-11-21T21:06:03;-0.92;87.06
69006;SHT31;56061;51.748;19.620;2023-11-21T21:08:29;-0.92;87.10
69006;SHT31;56061;51.748;19.620;2023-11-21T21:10:56;-0.91;87.10
69006;SHT31;56061;51.748;19.620;2023-11-21T21:13:24;-0.90;87.15
69006;SHT31;56061;51.748;19.620;2023-11-21T21:15:51;-0.90;87.11
69006;SHT31;56061;51.748;19.620;2023-11-21T21:18:17;-0.92;87.00
69006;SHT31;56061;51.748;19.620;2023-11-21T21:20:44;-0.93;87.08
69006;SHT31;56061;51.748;19.620;2023-11-21T21:23:11;-0.92;87.10
69006;SHT31;56061;51.748;19.620;2023-11-21T21:25:40;-0.93;87.10
69006;SHT31;56061;51.748;19.620;2023-11-21T21:28:06;-0.94;86.89
69006;SHT31;56061;51.748;19.620;2023-11-21T21:30:33;-0.97;86.84
69006;SHT31;56061;51.748;19.620;2023-11-21T21:32:59;-0.97;86.80
69006;SHT31;56061;51.748;19.620;2023-11-21T21:35:27;-0.98;86.86
69006;SHT31;56061;51.748;19.620;2023-11-21T21:37:55;-0.99;86.89
69006;SHT31;56061;51.748;19.620;2023-11-21T21:40:25;-1.01;86.83
69006;SHT31;56061;51.748;19.620;2023-11-21T21:42:54;-1.03;86.85
69006;SHT31;56061;51.748;19.620;2023-11-21T21:45:22;-1.03;86.90
69006;SHT31;56061;51.748;19.620;2023-11-21T21:47:51;-1.03;86.94
69006;SHT31;56061;51.748;19.620;2023-11-21T21:50:18;-1.03;86.95
69006;SHT31;56061;51.748;19.620;2023-11-21T21:52:45;-1.03;86.90
69006;SHT31;56061;51.748;19.620;2023-11-21T21:55:13;-1.03;86.90
69006;SHT31;56061;51.748;19.620;2023-11-21T21:57:40;-1.03;86.87
69006;SHT31;56061;51.748;19.620;2023-11-21T22:00:06;-1.03;86.77
69006;SHT31;56061;51.748;19.620;2023-11-21T22:02:34;-1.03;86.70
69006;SHT31;56061;51.748;19.620;2023-11-21T22:05:01;-1.03;86.69
69006;SHT31;56061;51.748;19.620;2023-11-21T22:07:28;-1.03;86.72
69006;SHT31;56061;51.748;19.620;2023-11-21T22:09:55;-1.01;86.78
69006;SHT31;56061;51.748;19.620;2023-11-21T22:12:21;-1.00;86.71
69006;SHT31;56061;51.748;19.620;2023-11-21T22:14:48;-0.99;86.68
69006;SHT31;56061;51.748;19.620;2023-11-21T22:17:15;-0.99;86.60
69006;SHT31;56061;51.748;19.620;2023-11-21T22:19:42;-1.00;86.52
69006;SHT31;56061;51.748;19.620;2023-11-21T22:22:09;-1.03;86.37
69006;SHT31;56061;51.748;19.620;2023-11-21T22:24:36;-1.05;86.24
69006;SHT31;56061;51.748;19.620;2023-11-21T22:27:04;-1.09;86.07
69006;SHT31;56061;51.748;19.620;2023-11-21T22:29:32;-1.12;86.08
69006;SHT31;56061;51.748;19.620;2023-11-21T22:31:58;-1.15;85.99
69006;SHT31;56061;51.748;19.620;2023-11-21T22:34:25;-1.18;85.82
69006;SHT31;56061;51.748;19.620;2023-11-21T22:36:52;-1.22;85.68
69006;SHT31;56061;51.748;19.620;2023-11-21T22:39:19;-1.25;85.62
69006;SHT31;56061;51.748;19.620;2023-11-21T22:41:46;-1.27;85.72
69006;SHT31;56061;51.748;19.620;2023-11-21T22:44:14;-1.27;85.85
69006;SHT31;56061;51.748;19.620;2023-11-21T22:46:41;-1.27;85.84
69006;SHT31;56061;51.748;19.620;2023-11-21T22:49:10;-1.27;85.80
69006;SHT31;56061;51.748;19.620;2023-11-21T22:51:39;-1.28;85.74
69006;SHT31;56061;51.748;19.620;2023-11-21T22:54:07;-1.29;85.72
69006;SHT31;56061;51.748;19.620;2023-11-21T22:56:34;-1.31;85.69
69006;SHT31;56061;51.748;19.620;2023-11-21T22:59:01;-1.33;85.66
69006;SHT31;56061;51.748;19.620;2023-11-21T23:01:29;-1.34;85.62
69006;SHT31;56061;51.748;19.620;2023-11-21T23:03:56;-1.34;85.66
69006;SHT31;56061;51.748;19.620;2023-11-21T23:06:23;-1.36;85.61
69006;SHT31;56061;51.748;19.620;2023-11-21T23:08:50;-1.35;85.77
69006;SHT31;56061;51.748;19.620;2023-11-21T23:11:17;-1.36;85.68
69006;SHT31;56061;51.748;19.620;2023-11-21T23:13:43;-1.38;85.61
69006;SHT31;56061;51.748;19.620;2023-11-21T23:16:10;-1.38;85.62
69006;SHT31;56061;51.748;19.620;2023-11-21T23:18:37;-1.37;85.72
69006;SHT31;56061;51.748;19.620;2023-11-21T23:21:04;-1.38;85.61
69006;SHT31;56061;51.748;19.620;2023-11-21T23:23:32;-1.41;85.40
69006;SHT31;56061;51.748;19.620;2023-11-21T23:25:59;-1.44;85.26
69006;SHT31;56061;51.748;19.620;2023-11-21T23:28:27;-1.46;85.27
69006;SHT31;56061;51.748;19.620;2023-11-21T23:30:54;-1.47;85.27
69006;SHT31;56061;51.748;19.620;2023-11-21T23:33:21;-1.47;85.29
69006;SHT31;56061;51.748;19.620;2023-11-21T23:35:48;-1.47;85.27
69006;SHT31;56061;51.748;19.620;2023-11-21T23:38:14;-1.48;85.11
69006;SHT31;56061;51.748;19.620;2023-11-21T23:40:42;-1.50;85.12
69006;SHT31;56061;51.748;19.620;2023-11-21T23:43:13;-1.51;85.07
69006;SHT31;56061;51.748;19.620;2023-11-21T23:45:39;-1.54;84.73
69006;SHT31;56061;51.748;19.620;2023-11-21T23:48:07;-1.56;84.67
69006;SHT31;56061;51.748;19.620;2023-11-21T23:50:33;-1.59;84.78
69006;SHT31;56061;51.748;19.620;2023-11-21T23:53:00;-1.61;84.79
69006;SHT31;56061;51.748;19.620;2023-11-21T23:55:28;-1.63;84.61
69006;SHT31;56061;51.748;19.620;2023-11-21T23:57:54;-1.67;84.55
